There are no active watches, warnings or advisories



For GOD so loved the world that HE gave HIS one and only SON, that whoever believes in HIM shall not perish but have eternal life.


Thunder radar more information blitzortung!


Rain radar more information rain snow radar



Select another period ( hide this area )

Units Period Custom range Directly to
Metric English Both
Daily Weekly Monthly Yearly
use both date-selectors for a custom range
previous Day
With this date

WeatherUnderground graphs for this period ( click here )


Daily Summary for Saturday Mar 28 2020
Time Temp. ( °C ) Dew pt. ( °C ) Wind ( km/h ) from Gust ( km/h ) Pressure ( hPa ) Humid.( % ) Rainrate ( cm ) Solar ( W/m2 )
High10,4 8,6 16,4 ESE ( 240/769 ) 25,9 1017,5 93 2,29 225
Average7,9 5,4 5,1 ESE #71/242 8,9 1012,4 85 2,54 63 #141/242
Low3,1 1,1 -   0,0 1009,4 64 -  
Daily Tabular details for Saturday Mar 28 2020
Time Temp. ( °C ) Dew pt. ( °C ) Wind ( km/h ) from Gust ( km/h ) Pressure ( hPa ) Humid.( % ) Rainrate ( cm ) Solar ( W/m2 )
00:00 3,4 1,7   Calm   1017,2 88 - -
00:05 3,5 1,7   Calm   1017,5 88 - -
00:10 3,5 1,7   Calm   1017,2 88 - -
00:15 3,6 1,8   Calm   1016,8 88 - -
00:20 3,6 1,6 3,2 ESE 5,6 1016,8 87 - -
00:25 3,6 1,7 1,0 ESE 3,7 1016,8 87 - -
00:30 3,7 1,8 3,5 East 5,6 1016,8 87 - -
00:35 3,8 1,8 0,8 ESE 3,7 1016,8 87 - -
00:40 3,8 1,7 0,5 ESE 3,7 1016,8 86 - -
00:45 3,8 1,5   Calm   1016,8 85 - -
00:50 3,7 1,6   Calm   1016,8 86 - -
00:55 3,5 1,4   Calm   1016,8 86 - -
01:00 3,2 1,1   Calm   1016,8 86 - -
01:05 3,3 1,4   Calm   1016,8 87 - -
01:10 3,2 1,1   Calm   1016,8 86 - -
01:15 3,1 1,1   Calm   1016,5 87 - -
01:20 3,1 1,2   Calm   1016,8 87 - -
01:25 3,3 1,3 3,1 ESE 3,7 1016,5 87 - -
01:30 3,4 1,4   Calm 1,9 1016,5 87 - -
01:35 3,6 1,6 1,8 East 3,7 1016,1 87 - -
01:40 3,7 1,6   Calm   1016,1 86 - -
01:45 3,8 1,7   Calm   1016,1 86 - -
01:50 3,9 1,8 1,8 East 3,7 1016,1 86 - -
01:55 4,0 1,7   Calm   1015,8 85 - -
02:00 4,1 1,8 0,6 East 5,6 1015,8 85 - -
02:05 4,1 1,8   Calm 1,9 1015,8 85 - -
02:10 4,1 1,7 1,3 East 5,6 1015,5 84 - -
02:15 4,2 1,9   Calm   1015,5 85 - -
02:20 4,2 1,9   Calm   1015,1 85 - -
02:25 4,3 2,1 0,2 East 1,9 1015,5 85 - -
02:30 4,4 2,0 1,4 East 3,7 1015,5 84 - -
02:35 4,6 2,1 1,8 East 5,6 1015,5 84 - -
02:40 4,7 2,2 2,4 ESE 5,6 1015,5 84 - -
02:45 4,9 2,3 2,6 ESE 5,6 1015,5 83 - -
02:50 5,1 2,4 2,7 East 5,6 1015,5 83 - -
02:55 5,1 2,4 2,9 East 5,6 1015,5 83 - -
03:00 5,2 2,6 2,7 ESE 3,7 1015,5 83 - -
03:05 5,3 2,7 4,0 East 5,6 1015,1 83 - -
03:10 5,6 2,7 3,4 SE 5,6 1015,1 82 - -
03:15 5,8 2,9 4,5 ESE 5,6 1015,1 82 - -
03:20 6,1 3,1 6,9 SE 11,1 1014,8 81 - -
03:25 6,3 3,1 7,1 ESE 14,8 1014,8 80 - -
03:30 6,6 3,2 7,1 East 11,1 1014,4 79 - -
03:35 6,7 3,1 4,5 SE 8,0 1014,4 78 - -
03:40 6,8 3,0 6,1 ESE 11,1 1014,4 77 - -
03:45 6,8 3,0 6,1 ESE 9,3 1014,1 77 - -
03:50 6,9 2,9 3,4 East 11,1 1014,4 76 - -
03:55 6,9 3,0 6,0 ESE 9,3 1014,4 76 - -
04:00 7,0 2,9 5,3 ESE 11,1 1014,1 75 - -
04:05 7,1 2,9 1,1 ESE 4,8 1014,1 75 - -
04:10 7,1 2,7 4,3 East 5,6 1014,1 74 - -
04:15 7,1 2,7 3,4 East 5,6 1014,1 74 - -
04:20 7,1 2,7 4,7 ESE 5,6 1013,8 74 - -
04:25 7,1 2,7 6,4 East 9,3 1013,8 74 - -
04:30 7,1 2,8 4,3 SSE 12,9 1013,4 74 - -
04:35 7,2 2,8 4,8 SE 7,4 1013,4 74 - -
04:40 7,2 2,7 7,4 SE 16,7 1013,4 73 - -
04:45 7,2 2,7 7,6 SE 11,1 1013,4 73 - -
04:50 7,3 2,6 4,5 SE 5,6 1013,8 72 - -
04:55 7,4 2,7 6,6 ESE 11,1 1013,4 72 - -
05:00 7,4 2,5 7,9 ESE 13,0 1013,4 71 - -
05:05 7,6 2,6 4,8 East 9,7 1013,4 71 - -
05:10 7,6 2,4 2,3 East 5,6 1013,4 70 - -
05:15 7,6 2,5 3,1 ESE 5,6 1013,4 70 - -
05:20 7,6 2,5 3,7 ESE 5,6 1013,1 70 - -
05:25 7,6 2,4 5,8 East 9,3 1013,1 70 - -
05:30 7,6 2,5 3,5 ESE 9,3 1013,1 70 - -
05:35 7,7 2,6 4,3 East 9,3 1013,1 70 - -
05:40 7,7 2,6 6,6 ENE 13,0 1013,1 70 - -
05:45 7,7 2,6 7,2 East 14,8 1013,1 70 - -
05:50 7,7 2,3 7,7 ESE 11,1 1012,8 69 - -
05:55 7,7 2,4 5,1 ESE 11,1 1012,8 69 - -
06:00 7,8 2,4 4,5 ESE 5,6 1013,1 69 - -
06:05 7,9 2,3 4,0 East 5,6 1013,1 68 - -
06:10 8,0 2,4 2,7 East 5,6 1013,1 68 - -
06:15 8,0 2,2 5,3 ESE 9,3 1012,8 67 - -
06:20 8,1 2,3 3,4 SE 7,4 1012,8 67 - -
06:25 8,2 2,2 0,6 ESE 1,9 1012,8 66 - -
06:30 8,3 2,1 1,4 SE 3,7 1013,1 65 - -
06:35 8,4 2,2 7,6 SE 16,7 1012,8 65 - -
06:40 8,5 2,1 4,8 SE 11,1 1012,8 64 - -
06:45 8,6 2,2 5,8 SE 14,8 1013,1 64 - -
06:50 8,7 2,3 3,4 SE 5,6 1013,1 64 - -
06:55 8,8 2,3 7,1 ESE 11,1 1013,1 64 - -
07:00 8,8 2,3 7,2 SE 11,1 1013,4 64 - -
07:05 8,9 2,4 3,9 ESE 9,7 1013,1 64 - -
07:10 8,9 2,4 2,3 SE 3,7 1012,8 64 - -
07:15 8,9 2,4 1,1 SE 3,7 1013,1 64 - -
07:20 8,8 2,6 2,6 SE 5,6 1013,1 65 - -
07:25 8,8 2,6 3,4 SE 5,6 1012,8 65 - -
07:30 8,8 3,0 4,8 SE 5,6 1012,8 67 - 5
07:35 8,6 3,2 0,2 SE 3,7 1013,1 69 - 5
07:40 8,4 3,5   Calm   1013,1 71 - 5
07:45 8,3 3,7 3,2 South 5,6 1013,4 73 - 7
07:50 8,1 3,9 7,4 South 11,1 1013,4 75 - 7
07:55 7,9 4,1 7,9 SE 14,8 1013,4 77 - 5
08:00 7,7 4,3 9,7 SSE 18,5 1013,8 79 - 5
08:05 7,6 4,3 8,0 ESE 13,0 1013,4 80 - 5
08:10 7,4 4,4 4,2 SE 5,6 1013,4 81 0,25 7
08:15 7,4 4,5 8,7 SSE 22,5 1013,4 82 0,25 9
08:20 7,3 4,6 12,1 SE 20,4 1013,4 83 0,51 12
08:25 7,3 4,8 10,9 South 18,5 1013,4 84 0,76 14
08:30 7,2 4,7 10,9 SSE 18,5 1013,8 84 1,02 14
08:35 7,2 4,9 12,9 South 18,5 1014,1 85 1,02 14
08:40 7,2 4,8 9,2 South 13,0 1014,1 85 1,27 16
08:45 7,2 5,0 8,9 SSE 13,0 1014,1 86 1,52 16
08:50 7,2 5,0 9,0 SSE 13,0 1014,1 86 1,52 18
08:55 7,2 5,0 13,2 SE 18,5 1014,1 86 1,78 21
09:00 7,2 5,2 4,2 ESE 5,6 1013,8 87 2,03 25
09:05 7,2 5,2 4,2 SE 5,6 1013,4 87 2,29 25
09:10 7,2 5,3 1,8 SE 6,4 1013,8 88 2,29 25
09:15 7,2 5,6 4,5 SE 7,4 1013,8 89 2,29 30
09:20 7,3 5,7 7,9 SSE 13,0 1014,1 89 2,29 28
09:25 7,5 5,9 7,6 SE 14,8 1014,1 90 2,29 32
09:30 7,6 6,1 9,5 South 18,5 1013,8 90 2,03 39
09:35 7,8 6,2 8,4 SSE 14,8 1013,8 90 2,29 53
09:40 7,9 6,3 6,8 SSE 16,7 1013,4 90 2,29 56
09:45 7,9 6,4 7,4 SSE 11,3 1013,4 90 2,29 65
09:50 7,9 6,6 6,1 SE 9,3 1013,1 91 2,29 58
09:55 8,0 6,6 14,0 ESE 22,2 1013,1 91 2,29 67
10:00 8,1 6,7 4,2 SE 8,0 1013,4 91 2,03 54
10:05 8,2 6,8 11,3 South 16,7 1013,4 91 1,78 44
10:10 8,3 6,9 11,3 SE 14,8 1013,8 91 1,78 39
10:15 8,4 7,0 3,5 ESE 5,6 1013,8 91 2,03 37
10:20 8,4 7,1 8,7 ESE 14,8 1013,4 91 1,78 37
10:25 8,5 7,1 5,1 ESE 5,6 1013,4 91 1,78 65
10:30 8,5 7,1 2,7 SE 5,6 1013,4 91 2,03 58
10:35 8,5 7,1 0,6 SSE 6,4 1013,4 91 1,78 60
10:40 8,5 7,1 4,5 ESE 7,4 1013,1 91 2,03 69
10:45 8,6 7,3 4,3 ESE 7,4 1012,8 92 1,78 105
10:50 8,6 7,4 7,7 ESE 16,7 1012,8 92 2,03 93
10:55 8,7 7,4 6,9 SE 13,0 1012,8 92 2,03 72
11:00 8,7 7,4 8,0 ESE 14,8 1012,8 92 2,03 62
11:05 8,7 7,4 10,1 ESE 16,7 1013,1 92 2,03 58
11:10 8,7 7,4 6,1 SSE 9,7 1013,1 92 2,03 53
11:15 8,6 7,4 15,3 SE 24,1 1012,4 92 2,03 76
11:20 8,7 7,4 8,5 ESE 13,0 1012,1 92 2,29 83
11:25 8,7 7,4 10,3 SE 16,7 1012,1 92 2,29 58
11:30 8,7 7,4 8,2 SSE 14,8 1012,1 92 2,03 33
11:35 8,6 7,4 13,0 East 20,4 1011,7 92 2,29 26
11:40 8,6 7,3 6,9 SE 11,3 1011,7 92 2,29 26
11:45 8,6 7,4 2,9 SE 5,6 1012,1 92 2,29 51
11:50 8,7 7,5 9,0 ESE 13,0 1012,1 92 2,03 47
11:55 8,7 7,3 7,1 East 13,0 1011,7 91 1,78 44
12:00 8,8 7,4 6,1 SE 9,3 1011,7 91 1,78 40
12:05 8,8 7,4 5,6 East 9,3 1011,7 91 1,78 56
12:10 8,9 7,5 4,0 ESE 5,6 1011,7 91 1,52 44
12:15 8,8 7,4 4,8 East 9,3 1012,1 91 1,52 42
12:20 8,8 7,4 2,7 ESE 5,6 1012,1 91 1,27 54
12:25 8,8 7,4 2,1 East 3,7 1012,1 91 1,27 42
12:30 8,8 7,4 1,0 NNE 5,6 1012,8 91 1,52 33
12:35 8,8 7,4 1,3 NE 5,6 1012,8 91 1,27 49
12:40 8,8 7,4 2,4 NE 5,6 1012,4 91 1,02 56
12:45 8,7 7,3 1,1 ENE 3,7 1012,4 91 1,27 83
12:50 8,8 7,4 4,0 ENE 6,4 1012,1 91 1,27 120
12:55 8,9 7,7 0,6 ESE 5,6 1011,7 92 1,52 93
13:00 8,8 7,6 7,6 East 11,1 1011,4 92 1,52 95
13:05 8,9 7,7 6,0 East 11,1 1011,1 92 1,78 225
13:10 9,1 7,8 2,7 ENE 5,6 1011,1 92 1,78 156
13:15 9,0 7,8 4,2 NE 11,1 1011,4 92 1,52 120
13:20 8,9 7,7 4,5 NE 7,4 1011,4 92 1,52 148
13:25 9,0 7,8 2,7 ENE 5,6 1011,4 92 1,27 125
13:30 9,0 7,8 5,0 ENE 5,6 1011,4 92 1,02 107
13:35 8,9 7,7 3,2 East 5,6 1011,4 92 1,02 67
13:40 8,9 7,7 2,7 NE 6,4 1011,4 92 0,76 58
13:45 8,8 7,6 5,6 ENE 11,1 1011,4 92 0,51 54
13:50 8,7 7,5 8,7 East 11,1 1011,4 92 0,51 62
13:55 8,7 7,7 4,2 ESE 9,3 1011,1 93 0,25 62
14:00 8,8 7,8 6,6 East 13,0 1011,1 93 0,25 132
14:05 8,9 7,8 4,2 East 5,6 1010,7 93 - 130
14:10 8,9 7,9 6,9 ESE 11,1 1011,1 93 - 128
14:15 9,0 7,9 8,0 East 11,1 1010,7 93 - 111
14:20 9,1 8,1 6,1 SE 11,1 1011,1 93 - 93
14:25 9,2 8,2 8,2 SE 16,7 1010,7 93 - 91
14:30 9,3 8,1 11,1 SSE 16,7 1010,4 92 - 90
14:35 9,3 8,1 12,6 ESE 16,7 1010,4 92 - 118
14:40 9,4 8,2 16,4 ESE 25,9 1010,4 92 - 111
14:45 9,6 8,2 9,8 SE 16,7 1010,4 91 - 98
14:50 9,6 8,1 9,7 SE 13,0 1010,4 90 - 113
14:55 9,7 8,1 10,9 SE 14,8 1010,4 90 - 105
15:00 9,7 8,1 11,3 SE 16,7 1010,4 90 - 81
15:05 9,7 8,1 10,6 SE 14,8 1010,4 90 - 102
15:10 9,6 7,9 11,1 SE 16,7 1010,4 89 - 86
15:15 9,6 7,8 10,3 SSE 18,5 1010,7 89 - 98
15:20 9,7 7,9 11,4 East 18,5 1010,4 89 - 95
15:25 9,7 7,9 3,1 SE 5,6 1010,4 89 - 105
15:30 9,7 8,0 10,6 ESE 14,8 1010,4 89 - 62
15:35 9,7 7,9 2,9 SE 5,6 1010,4 89 - 102
15:40 9,7 8,0 6,4 SE 13,0 1010,0 89 - 109
15:45 9,8 8,1 7,7 SE 17,7 1009,7 89 - 135
15:50 9,7 8,0 8,9 East 18,5 1009,7 89 - 190
15:55 9,8 8,1 6,1 East 11,1 1009,7 89 - 125
16:00 9,9 8,4 3,7 ESE 9,7 1010,0 90 - 102
16:05 9,9 8,2 7,1 SE 9,3 1010,0 89 - 109
16:10 9,9 8,4 7,2 ESE 13,0 1010,0 90 - 95
16:15 9,9 8,4 9,8 SE 14,8 1010,4 90 - 81
16:20 9,9 8,4 8,5 ESE 13,0 1010,0 90 - 109
16:25 10,0 8,4 11,1 SE 14,8 1009,7 90 - 118
16:30 10,0 8,3 14,5 ESE 18,5 1009,4 89 - 120
16:35 10,1 8,3 7,2 ESE 9,3 1009,4 89 - 107
16:40 10,1 8,3 9,7 SE 14,8 1009,4 89 - 98
16:45 10,1 8,3 12,1 SSE 16,7 1009,4 89 - 109
16:50 10,1 8,3 14,2 SE 20,4 1009,4 89 - 105
16:55 10,1 8,4 4,3 ESE 9,3 1009,7 89 - 84
17:00 10,1 8,4 11,1 ESE 14,8 1009,4 89 - 98
17:05 10,2 8,4 7,2 ESE 11,1 1009,4 89 - 121
17:10 10,3 8,6 8,7 East 16,7 1009,7 89 - 123
17:15 10,3 8,6 8,9 SE 14,8 1009,7 89 - 111
17:20 10,4 8,5 13,4 ESE 18,5 1010,0 88 - 84
17:25 10,4 8,5 7,9 SE 11,1 1010,0 88 - 56
17:30 10,4 8,6 5,1 ESE 5,6 1010,4 88 - 54
17:35 10,4 8,6 4,0 ESE 5,6 1010,4 88 - 44
17:40 10,4 8,5 4,7 East 5,6 1010,0 88 - 40
17:45 10,4 8,5 0,5 ESE 3,7 1010,4 88 - 30
17:50 10,3 8,4 0,2 East 1,9 1010,4 88 - 26
17:55 10,3 8,4 2,6 East 5,6 1010,4 88 - 23
18:00 10,3 8,4 1,6 East 3,7 1010,4 88 - 21
18:05 10,3 8,6 3,1 East 5,6 1010,4 89 - 19
18:10 10,2 8,5 2,1 East 5,6 1010,4 89 - 18
18:15 10,2 8,5 4,8 ESE 5,6 1010,4 89 - 16
18:20 10,2 8,4 0,6 East 3,7 1010,4 89 - 16
18:25 10,2 8,4 6,3 East 11,1 1010,4 89 - 18
18:30 10,2 8,4 1,3 East 3,7 1010,7 89 - 12
18:35 10,2 8,4 5,3 ENE 7,4 1010,7 89 - 16
18:40 10,2 8,4 3,9 ESE 5,6 1011,1 89 - 11
18:45 10,2 8,6 1,0 ESE 3,7 1011,1 90 - 7
18:50 10,2 8,6 1,8 ESE 3,7 1011,4 90 - 7
18:55 10,2 8,6 4,7 SE 11,3 1011,4 90 - 7
19:00 10,2 8,6 4,0 ESE 5,6 1011,1 90 - 7
19:05 10,1 8,6 2,4 ESE 5,6 1011,1 90 - 7
19:10 10,1 8,5 3,5 East 5,6 1011,1 90 - 5
19:15 10,0 8,4 2,7 East 5,6 1011,1 90 - -
19:20 9,9 8,6 5,1 ESE 9,3 1011,1 91 - -
19:25 9,9 8,5 1,0 East 3,7 1011,1 91 - -
19:30 9,8 8,4 2,4 ESE 5,6 1011,1 91 - -
19:35 9,8 8,6 2,7 ESE 5,6 1011,4 92 - -
19:40 9,8 8,6 1,6 ESE 5,6 1011,4 92 - -
19:45 9,7 8,5   Calm   1011,4 92 - -
19:50 9,7 8,5   Calm   1011,4 92 - -
19:55 9,7 8,5 0,3 East 3,7 1011,4 92 - -
20:00 9,7 8,4 1,1 NE 3,7 1011,4 92 - -
20:05 9,7 8,6 0,2 NE 1,9 1011,4 93 - -
Daily Summary for Saturday Mar 28 2020
Time Temp. ( °C ) Dew pt. ( °C ) Wind ( km/h ) from Gust ( km/h ) Pressure ( hPa ) Humid.( % ) Rainrate ( cm ) Solar ( W/m2 )
High10,4 8,6 16,4 ESE ( 240/769 ) 25,9 1017,5 93 2,29 225
Average7,9 5,4 5,1 ESE #71/242 8,9 1012,4 85 2,54 63 #141/242
Low3,1 1,1 -   0,0 1009,4 64 -  
Daily Tabular details for Saturday Mar 28 2020
Time Temp. ( °C ) Dew pt. ( °C ) Wind ( km/h ) from Gust ( km/h ) Pressure ( hPa ) Humid.( % ) Rainrate ( cm ) Solar ( W/m2 )
00:00 3,4 1,7   Calm   1017,2 88 - -
00:05 3,5 1,7   Calm   1017,5 88 - -
00:10 3,5 1,7   Calm   1017,2 88 - -
00:15 3,6 1,8   Calm   1016,8 88 - -
00:20 3,6 1,6 3,2 ESE 5,6 1016,8 87 - -
00:25 3,6 1,7 1,0 ESE 3,7 1016,8 87 - -
00:30 3,7 1,8 3,5 East 5,6 1016,8 87 - -
00:35 3,8 1,8 0,8 ESE 3,7 1016,8 87 - -
00:40 3,8 1,7 0,5 ESE 3,7 1016,8 86 - -
00:45 3,8 1,5   Calm   1016,8 85 - -
00:50 3,7 1,6   Calm   1016,8 86 - -
00:55 3,5 1,4   Calm   1016,8 86 - -
01:00 3,2 1,1   Calm   1016,8 86 - -
01:05 3,3 1,4   Calm   1016,8 87 - -
01:10 3,2 1,1   Calm   1016,8 86 - -
01:15 3,1 1,1   Calm   1016,5 87 - -
01:20 3,1 1,2   Calm   1016,8 87 - -
01:25 3,3 1,3 3,1 ESE 3,7 1016,5 87 - -
01:30 3,4 1,4   Calm 1,9 1016,5 87 - -
01:35 3,6 1,6 1,8 East 3,7 1016,1 87 - -
01:40 3,7 1,6   Calm   1016,1 86 - -
01:45 3,8 1,7   Calm   1016,1 86 - -
01:50 3,9 1,8 1,8 East 3,7 1016,1 86 - -
01:55 4,0 1,7   Calm   1015,8 85 - -
02:00 4,1 1,8 0,6 East 5,6 1015,8 85 - -
02:05 4,1 1,8   Calm 1,9 1015,8 85 - -
02:10 4,1 1,7 1,3 East 5,6 1015,5 84 - -
02:15 4,2 1,9   Calm   1015,5 85 - -
02:20 4,2 1,9   Calm   1015,1 85 - -
02:25 4,3 2,1 0,2 East 1,9 1015,5 85 - -
02:30 4,4 2,0 1,4 East 3,7 1015,5 84 - -
02:35 4,6 2,1 1,8 East 5,6 1015,5 84 - -
02:40 4,7 2,2 2,4 ESE 5,6 1015,5 84 - -
02:45 4,9 2,3 2,6 ESE 5,6 1015,5 83 - -
02:50 5,1 2,4 2,7 East 5,6 1015,5 83 - -
02:55 5,1 2,4 2,9 East 5,6 1015,5 83 - -
03:00 5,2 2,6 2,7 ESE 3,7 1015,5 83 - -
03:05 5,3 2,7 4,0 East 5,6 1015,1 83 - -
03:10 5,6 2,7 3,4 SE 5,6 1015,1 82 - -
03:15 5,8 2,9 4,5 ESE 5,6 1015,1 82 - -
03:20 6,1 3,1 6,9 SE 11,1 1014,8 81 - -
03:25 6,3 3,1 7,1 ESE 14,8 1014,8 80 - -
03:30 6,6 3,2 7,1 East 11,1 1014,4 79 - -
03:35 6,7 3,1 4,5 SE 8,0 1014,4 78 - -
03:40 6,8 3,0 6,1 ESE 11,1 1014,4 77 - -
03:45 6,8 3,0 6,1 ESE 9,3 1014,1 77 - -
03:50 6,9 2,9 3,4 East 11,1 1014,4 76 - -
03:55 6,9 3,0 6,0 ESE 9,3 1014,4 76 - -
04:00 7,0 2,9 5,3 ESE 11,1 1014,1 75 - -
04:05 7,1 2,9 1,1 ESE 4,8 1014,1 75 - -
04:10 7,1 2,7 4,3 East 5,6 1014,1 74 - -
04:15 7,1 2,7 3,4 East 5,6 1014,1 74 - -
04:20 7,1 2,7 4,7 ESE 5,6 1013,8 74 - -
04:25 7,1 2,7 6,4 East 9,3 1013,8 74 - -
04:30 7,1 2,8 4,3 SSE 12,9 1013,4 74 - -
04:35 7,2 2,8 4,8 SE 7,4 1013,4 74 - -
04:40 7,2 2,7 7,4 SE 16,7 1013,4 73 - -
04:45 7,2 2,7 7,6 SE 11,1 1013,4 73 - -
04:50 7,3 2,6 4,5 SE 5,6 1013,8 72 - -
04:55 7,4 2,7 6,6 ESE 11,1 1013,4 72 - -
05:00 7,4 2,5 7,9 ESE 13,0 1013,4 71 - -
05:05 7,6 2,6 4,8 East 9,7 1013,4 71 - -
05:10 7,6 2,4 2,3 East 5,6 1013,4 70 - -
05:15 7,6 2,5 3,1 ESE 5,6 1013,4 70 - -
05:20 7,6 2,5 3,7 ESE 5,6 1013,1 70 - -
05:25 7,6 2,4 5,8 East 9,3 1013,1 70 - -
05:30 7,6 2,5 3,5 ESE 9,3 1013,1 70 - -
05:35 7,7 2,6 4,3 East 9,3 1013,1 70 - -
05:40 7,7 2,6 6,6 ENE 13,0 1013,1 70 - -
05:45 7,7 2,6 7,2 East 14,8 1013,1 70 - -
05:50 7,7 2,3 7,7 ESE 11,1 1012,8 69 - -
05:55 7,7 2,4 5,1 ESE 11,1 1012,8 69 - -
06:00 7,8 2,4 4,5 ESE 5,6 1013,1 69 - -
06:05 7,9 2,3 4,0 East 5,6 1013,1 68 - -
06:10 8,0 2,4 2,7 East 5,6 1013,1 68 - -
06:15 8,0 2,2 5,3 ESE 9,3 1012,8 67 - -
06:20 8,1 2,3 3,4 SE 7,4 1012,8 67 - -
06:25 8,2 2,2 0,6 ESE 1,9 1012,8 66 - -
06:30 8,3 2,1 1,4 SE 3,7 1013,1 65 - -
06:35 8,4 2,2 7,6 SE 16,7 1012,8 65 - -
06:40 8,5 2,1 4,8 SE 11,1 1012,8 64 - -
06:45 8,6 2,2 5,8 SE 14,8 1013,1 64 - -
06:50 8,7 2,3 3,4 SE 5,6 1013,1 64 - -
06:55 8,8 2,3 7,1 ESE 11,1 1013,1 64 - -
07:00 8,8 2,3 7,2 SE 11,1 1013,4 64 - -
07:05 8,9 2,4 3,9 ESE 9,7 1013,1 64 - -
07:10 8,9 2,4 2,3 SE 3,7 1012,8 64 - -
07:15 8,9 2,4 1,1 SE 3,7 1013,1 64 - -
07:20 8,8 2,6 2,6 SE 5,6 1013,1 65 - -
07:25 8,8 2,6 3,4 SE 5,6 1012,8 65 - -
07:30 8,8 3,0 4,8 SE 5,6 1012,8 67 - 5
07:35 8,6 3,2 0,2 SE 3,7 1013,1 69 - 5
07:40 8,4 3,5   Calm   1013,1 71 - 5
07:45 8,3 3,7 3,2 South 5,6 1013,4 73 - 7
07:50 8,1 3,9 7,4 South 11,1 1013,4 75 - 7
07:55 7,9 4,1 7,9 SE 14,8 1013,4 77 - 5
08:00 7,7 4,3 9,7 SSE 18,5 1013,8 79 - 5
08:05 7,6 4,3 8,0 ESE 13,0 1013,4 80 - 5
08:10 7,4 4,4 4,2 SE 5,6 1013,4 81 0,25 7
08:15 7,4 4,5 8,7 SSE 22,5 1013,4 82 0,25 9
08:20 7,3 4,6 12,1 SE 20,4 1013,4 83 0,51 12
08:25 7,3 4,8 10,9 South 18,5 1013,4 84 0,76 14
08:30 7,2 4,7 10,9 SSE 18,5 1013,8 84 1,02 14
08:35 7,2 4,9 12,9 South 18,5 1014,1 85 1,02 14
08:40 7,2 4,8 9,2 South 13,0 1014,1 85 1,27 16
08:45 7,2 5,0 8,9 SSE 13,0 1014,1 86 1,52 16
08:50 7,2 5,0 9,0 SSE 13,0 1014,1 86 1,52 18
08:55 7,2 5,0 13,2 SE 18,5 1014,1 86 1,78 21
09:00 7,2 5,2 4,2 ESE 5,6 1013,8 87 2,03 25
09:05 7,2 5,2 4,2 SE 5,6 1013,4 87 2,29 25
09:10 7,2 5,3 1,8 SE 6,4 1013,8 88 2,29 25
09:15 7,2 5,6 4,5 SE 7,4 1013,8 89 2,29 30
09:20 7,3 5,7 7,9 SSE 13,0 1014,1 89 2,29 28
09:25 7,5 5,9 7,6 SE 14,8 1014,1 90 2,29 32
09:30 7,6 6,1 9,5 South 18,5 1013,8 90 2,03 39
09:35 7,8 6,2 8,4 SSE 14,8 1013,8 90 2,29 53
09:40 7,9 6,3 6,8 SSE 16,7 1013,4 90 2,29 56
09:45 7,9 6,4 7,4 SSE 11,3 1013,4 90 2,29 65
09:50 7,9 6,6 6,1 SE 9,3 1013,1 91 2,29 58
09:55 8,0 6,6 14,0 ESE 22,2 1013,1 91 2,29 67
10:00 8,1 6,7 4,2 SE 8,0 1013,4 91 2,03 54
10:05 8,2 6,8 11,3 South 16,7 1013,4 91 1,78 44
10:10 8,3 6,9 11,3 SE 14,8 1013,8 91 1,78 39
10:15 8,4 7,0 3,5 ESE 5,6 1013,8 91 2,03 37
10:20 8,4 7,1 8,7 ESE 14,8 1013,4 91 1,78 37
10:25 8,5 7,1 5,1 ESE 5,6 1013,4 91 1,78 65
10:30 8,5 7,1 2,7 SE 5,6 1013,4 91 2,03 58
10:35 8,5 7,1 0,6 SSE 6,4 1013,4 91 1,78 60
10:40 8,5 7,1 4,5 ESE 7,4 1013,1 91 2,03 69
10:45 8,6 7,3 4,3 ESE 7,4 1012,8 92 1,78 105
10:50 8,6 7,4 7,7 ESE 16,7 1012,8 92 2,03 93
10:55 8,7 7,4 6,9 SE 13,0 1012,8 92 2,03 72
11:00 8,7 7,4 8,0 ESE 14,8 1012,8 92 2,03 62
11:05 8,7 7,4 10,1 ESE 16,7 1013,1 92 2,03 58
11:10 8,7 7,4 6,1 SSE 9,7 1013,1 92 2,03 53
11:15 8,6 7,4 15,3 SE 24,1 1012,4 92 2,03 76
11:20 8,7 7,4 8,5 ESE 13,0 1012,1 92 2,29 83
11:25 8,7 7,4 10,3 SE 16,7 1012,1 92 2,29 58
11:30 8,7 7,4 8,2 SSE 14,8 1012,1 92 2,03 33
11:35 8,6 7,4 13,0 East 20,4 1011,7 92 2,29 26
11:40 8,6 7,3 6,9 SE 11,3 1011,7 92 2,29 26
11:45 8,6 7,4 2,9 SE 5,6 1012,1 92 2,29 51
11:50 8,7 7,5 9,0 ESE 13,0 1012,1 92 2,03 47
11:55 8,7 7,3 7,1 East 13,0 1011,7 91 1,78 44
12:00 8,8 7,4 6,1 SE 9,3 1011,7 91 1,78 40
12:05 8,8 7,4 5,6 East 9,3 1011,7 91 1,78 56
12:10 8,9 7,5 4,0 ESE 5,6 1011,7 91 1,52 44
12:15 8,8 7,4 4,8 East 9,3 1012,1 91 1,52 42
12:20 8,8 7,4 2,7 ESE 5,6 1012,1 91 1,27 54
12:25 8,8 7,4 2,1 East 3,7 1012,1 91 1,27 42
12:30 8,8 7,4 1,0 NNE 5,6 1012,8 91 1,52 33
12:35 8,8 7,4 1,3 NE 5,6 1012,8 91 1,27 49
12:40 8,8 7,4 2,4 NE 5,6 1012,4 91 1,02 56
12:45 8,7 7,3 1,1 ENE 3,7 1012,4 91 1,27 83
12:50 8,8 7,4 4,0 ENE 6,4 1012,1 91 1,27 120
12:55 8,9 7,7 0,6 ESE 5,6 1011,7 92 1,52 93
13:00 8,8 7,6 7,6 East 11,1 1011,4 92 1,52 95
13:05 8,9 7,7 6,0 East 11,1 1011,1 92 1,78 225
13:10 9,1 7,8 2,7 ENE 5,6 1011,1 92 1,78 156
13:15 9,0 7,8 4,2 NE 11,1 1011,4 92 1,52 120
13:20 8,9 7,7 4,5 NE 7,4 1011,4 92 1,52 148
13:25 9,0 7,8 2,7 ENE 5,6 1011,4 92 1,27 125
13:30 9,0 7,8 5,0 ENE 5,6 1011,4 92 1,02 107
13:35 8,9 7,7 3,2 East 5,6 1011,4 92 1,02 67
13:40 8,9 7,7 2,7 NE 6,4 1011,4 92 0,76 58
13:45 8,8 7,6 5,6 ENE 11,1 1011,4 92 0,51 54
13:50 8,7 7,5 8,7 East 11,1 1011,4 92 0,51 62
13:55 8,7 7,7 4,2 ESE 9,3 1011,1 93 0,25 62
14:00 8,8 7,8 6,6 East 13,0 1011,1 93 0,25 132
14:05 8,9 7,8 4,2 East 5,6 1010,7 93 - 130
14:10 8,9 7,9 6,9 ESE 11,1 1011,1 93 - 128
14:15 9,0 7,9 8,0 East 11,1 1010,7 93 - 111
14:20 9,1 8,1 6,1 SE 11,1 1011,1 93 - 93
14:25 9,2 8,2 8,2 SE 16,7 1010,7 93 - 91
14:30 9,3 8,1 11,1 SSE 16,7 1010,4 92 - 90
14:35 9,3 8,1 12,6 ESE 16,7 1010,4 92 - 118
14:40 9,4 8,2 16,4 ESE 25,9 1010,4 92 - 111
14:45 9,6 8,2 9,8 SE 16,7 1010,4 91 - 98
14:50 9,6 8,1 9,7 SE 13,0 1010,4 90 - 113
14:55 9,7 8,1 10,9 SE 14,8 1010,4 90 - 105
15:00 9,7 8,1 11,3 SE 16,7 1010,4 90 - 81
15:05 9,7 8,1 10,6 SE 14,8 1010,4 90 - 102
15:10 9,6 7,9 11,1 SE 16,7 1010,4 89 - 86
15:15 9,6 7,8 10,3 SSE 18,5 1010,7 89 - 98
15:20 9,7 7,9 11,4 East 18,5 1010,4 89 - 95
15:25 9,7 7,9 3,1 SE 5,6 1010,4 89 - 105
15:30 9,7 8,0 10,6 ESE 14,8 1010,4 89 - 62
15:35 9,7 7,9 2,9 SE 5,6 1010,4 89 - 102
15:40 9,7 8,0 6,4 SE 13,0 1010,0 89 - 109
15:45 9,8 8,1 7,7 SE 17,7 1009,7 89 - 135
15:50 9,7 8,0 8,9 East 18,5 1009,7 89 - 190
15:55 9,8 8,1 6,1 East 11,1 1009,7 89 - 125
16:00 9,9 8,4 3,7 ESE 9,7 1010,0 90 - 102
16:05 9,9 8,2 7,1 SE 9,3 1010,0 89 - 109
16:10 9,9 8,4 7,2 ESE 13,0 1010,0 90 - 95
16:15 9,9 8,4 9,8 SE 14,8 1010,4 90 - 81
16:20 9,9 8,4 8,5 ESE 13,0 1010,0 90 - 109
16:25 10,0 8,4 11,1 SE 14,8 1009,7 90 - 118
16:30 10,0 8,3 14,5 ESE 18,5 1009,4 89 - 120
16:35 10,1 8,3 7,2 ESE 9,3 1009,4 89 - 107
16:40 10,1 8,3 9,7 SE 14,8 1009,4 89 - 98
16:45 10,1 8,3 12,1 SSE 16,7 1009,4 89 - 109
16:50 10,1 8,3 14,2 SE 20,4 1009,4 89 - 105
16:55 10,1 8,4 4,3 ESE 9,3 1009,7 89 - 84
17:00 10,1 8,4 11,1 ESE 14,8 1009,4 89 - 98
17:05 10,2 8,4 7,2 ESE 11,1 1009,4 89 - 121
17:10 10,3 8,6 8,7 East 16,7 1009,7 89 - 123
17:15 10,3 8,6 8,9 SE 14,8 1009,7 89 - 111
17:20 10,4 8,5 13,4 ESE 18,5 1010,0 88 - 84
17:25 10,4 8,5 7,9 SE 11,1 1010,0 88 - 56
17:30 10,4 8,6 5,1 ESE 5,6 1010,4 88 - 54
17:35 10,4 8,6 4,0 ESE 5,6 1010,4 88 - 44
17:40 10,4 8,5 4,7 East 5,6 1010,0 88 - 40
17:45 10,4 8,5 0,5 ESE 3,7 1010,4 88 - 30
17:50 10,3 8,4 0,2 East 1,9 1010,4 88 - 26
17:55 10,3 8,4 2,6 East 5,6 1010,4 88 - 23
18:00 10,3 8,4 1,6 East 3,7 1010,4 88 - 21
18:05 10,3 8,6 3,1 East 5,6 1010,4 89 - 19
18:10 10,2 8,5 2,1 East 5,6 1010,4 89 - 18
18:15 10,2 8,5 4,8 ESE 5,6 1010,4 89 - 16
18:20 10,2 8,4 0,6 East 3,7 1010,4 89 - 16
18:25 10,2 8,4 6,3 East 11,1 1010,4 89 - 18
18:30 10,2 8,4 1,3 East 3,7 1010,7 89 - 12
18:35 10,2 8,4 5,3 ENE 7,4 1010,7 89 - 16
18:40 10,2 8,4 3,9 ESE 5,6 1011,1 89 - 11
18:45 10,2 8,6 1,0 ESE 3,7 1011,1 90 - 7
18:50 10,2 8,6 1,8 ESE 3,7 1011,4 90 - 7
18:55 10,2 8,6 4,7 SE 11,3 1011,4 90 - 7
19:00 10,2 8,6 4,0 ESE 5,6 1011,1 90 - 7
19:05 10,1 8,6 2,4 ESE 5,6 1011,1 90 - 7
19:10 10,1 8,5 3,5 East 5,6 1011,1 90 - 5
19:15 10,0 8,4 2,7 East 5,6 1011,1 90 - -
19:20 9,9 8,6 5,1 ESE 9,3 1011,1 91 - -
19:25 9,9 8,5 1,0 East 3,7 1011,1 91 - -
19:30 9,8 8,4 2,4 ESE 5,6 1011,1 91 - -
19:35 9,8 8,6 2,7 ESE 5,6 1011,4 92 - -
19:40 9,8 8,6 1,6 ESE 5,6 1011,4 92 - -
19:45 9,7 8,5   Calm   1011,4 92 - -
19:50 9,7 8,5   Calm   1011,4 92 - -
19:55 9,7 8,5 0,3 East 3,7 1011,4 92 - -
20:00 9,7 8,4 1,1 NE 3,7 1011,4 92 - -
20:05 9,7 8,6 0,2 NE 1,9 1011,4 93 - -

Download your copy of this data-set  here

Our weather-data as stored at Weather Underground. Script developed by Jim McMurry. Adapted for the template by Leuven-Template.eu